sensor_id;sensor_type;location;lat;lon;timestamp;pressure;altitude;pressure_sealevel;temperature;humidity
46223;BME280;31943;51.410;7.564;2023-02-19T06:47:29;100582.69;;;9.26;79.09
46223;BME280;31943;51.410;7.564;2023-02-19T06:50:00;100600.06;;;9.27;79.05
46223;BME280;31943;51.410;7.564;2023-02-19T06:52:30;100599.16;;;9.27;79.42
46223;BME280;31943;51.410;7.564;2023-02-19T06:54:56;100599.28;;;9.32;79.30
46223;BME280;31943;51.410;7.564;2023-02-19T06:57:25;100602.72;;;9.30;79.30
46223;BME280;31943;51.410;7.564;2023-02-19T06:59:50;100601.03;;;9.33;79.36
46223;BME280;31943;51.410;7.564;2023-02-19T07:02:17;100610.75;;;9.40;78.93
46223;BME280;31943;51.410;7.564;2023-02-19T07:04:45;100608.97;;;9.37;78.94
46223;BME280;31943;51.410;7.564;2023-02-19T07:07:10;100615.03;;;9.38;78.76
46223;BME280;31943;51.410;7.564;2023-02-19T07:09:37;100619.31;;;9.34;78.79
46223;BME280;31943;51.410;7.564;2023-02-19T07:12:03;100624.53;;;9.36;78.85
46223;BME280;31943;51.410;7.564;2023-02-19T07:14:30;100623.69;;;9.35;79.18
46223;BME280;31943;51.410;7.564;2023-02-19T07:16:56;100628.03;;;9.36;78.78
46223;BME280;31943;51.410;7.564;2023-02-19T07:20:15;100642.63;;;9.28;79.09
46223;BME280;31943;51.410;7.564;2023-02-19T07:22:46;100651.41;;;9.33;79.09
46223;BME280;31943;51.410;7.564;2023-02-19T07:25:14;100660.09;;;9.34;79.21
46223;BME280;31943;51.410;7.564;2023-02-19T07:27:40;100667.06;;;9.35;79.11
46223;BME280;31943;51.410;7.564;2023-02-19T07:30:06;100666.22;;;9.36;78.64
46223;BME280;31943;51.410;7.564;2023-02-19T07:32:32;100668.81;;;9.36;78.95
46223;BME280;31943;51.410;7.564;2023-02-19T07:34:58;100674.03;;;9.36;79.00
46223;BME280;31943;51.410;7.564;2023-02-19T07:37:25;100671.38;;;9.34;78.63
46223;BME280;31943;51.410;7.564;2023-02-19T07:39:51;100679.25;;;9.36;78.50
46223;BME280;31943;51.410;7.564;2023-02-19T07:42:16;100681.75;;;9.33;78.50
46223;BME280;31943;51.410;7.564;2023-02-19T07:44:42;100691.31;;;9.32;78.47
46223;BME280;31943;51.410;7.564;2023-02-19T07:47:10;100690.50;;;9.35;78.49
46223;BME280;31943;51.410;7.564;2023-02-19T07:49:38;100707.03;;;9.35;78.75
46223;BME280;31943;51.410;7.564;2023-02-19T07:52:04;100710.53;;;9.39;78.53
46223;BME280;31943;51.410;7.564;2023-02-19T07:54:31;100702.69;;;9.36;78.65
46223;BME280;31943;51.410;7.564;2023-02-19T07:56:57;100708.72;;;9.35;78.37
46223;BME280;31943;51.410;7.564;2023-02-19T07:59:25;100696.59;;;9.37;78.69
46223;BME280;31943;51.410;7.564;2023-02-19T08:01:51;100699.25;;;9.38;78.43
46223;BME280;31943;51.410;7.564;2023-02-19T08:04:17;100707.19;;;9.43;78.53
46223;BME280;31943;51.410;7.564;2023-02-19T08:06:44;100702.84;;;9.43;78.22
46223;BME280;31943;51.410;7.564;2023-02-19T08:11:57;100708.72;;;9.33;78.51
46223;BME280;31943;51.410;7.564;2023-02-19T08:14:24;100709.59;;;9.34;78.74
46223;BME280;31943;51.410;7.564;2023-02-19T08:16:54;100722.66;;;9.37;78.48
46223;BME280;31943;51.410;7.564;2023-02-19T08:19:22;100735.69;;;9.37;78.53
46223;BME280;31943;51.410;7.564;2023-02-19T08:21:47;100736.59;;;9.39;77.89
46223;BME280;31943;51.410;7.564;2023-02-19T08:24:36;100743.56;;;9.40;77.99
46223;BME280;31943;51.410;7.564;2023-02-19T08:27:03;100742.66;;;9.38;78.17
46223;BME280;31943;51.410;7.564;2023-02-19T08:29:28;100734.78;;;9.35;78.36
46223;BME280;31943;51.410;7.564;2023-02-19T08:31:54;100744.31;;;9.34;78.02
46223;BME280;31943;51.410;7.564;2023-02-19T08:34:20;100740.06;;;9.38;78.07
46223;BME280;31943;51.410;7.564;2023-02-19T08:36:45;100744.41;;;9.39;77.73
46223;BME280;31943;51.410;7.564;2023-02-19T08:39:12;100741.84;;;9.40;77.68
46223;BME280;31943;51.410;7.564;2023-02-19T08:41:40;100754.94;;;9.43;77.76
46223;BME280;31943;51.410;7.564;2023-02-19T08:44:11;100755.66;;;9.36;77.75
46223;BME280;31943;51.410;7.564;2023-02-19T08:46:38;100758.22;;;9.35;77.80
46223;BME280;31943;51.410;7.564;2023-02-19T08:49:05;100765.22;;;9.37;78.01
46223;BME280;31943;51.410;7.564;2023-02-19T08:51:30;100765.19;;;9.36;78.18
46223;BME280;31943;51.410;7.564;2023-02-19T08:54:00;100754.00;;;9.40;77.72
46223;BME280;31943;51.410;7.564;2023-02-19T08:56:31;100754.13;;;9.46;77.58
46223;BME280;31943;51.410;7.564;2023-02-19T08:58:59;100765.41;;;9.46;77.63
46223;BME280;31943;51.410;7.564;2023-02-19T09:01:26;100756.88;;;9.52;77.33
46223;BME280;31943;51.410;7.564;2023-02-19T09:03:52;100764.66;;;9.50;76.91
46223;BME280;31943;51.410;7.564;2023-02-19T09:06:19;100770.81;;;9.53;76.81
46223;BME280;31943;51.410;7.564;2023-02-19T09:08:45;100775.97;;;9.51;76.77
46223;BME280;31943;51.410;7.564;2023-02-19T09:11:13;100774.38;;;9.58;76.49
46223;BME280;31943;51.410;7.564;2023-02-19T09:13:38;100769.25;;;9.62;76.47
46223;BME280;31943;51.410;7.564;2023-02-19T09:16:05;100787.50;;;9.62;76.34
46223;BME280;31943;51.410;7.564;2023-02-19T09:18:32;100802.34;;;9.65;76.10
46223;BME280;31943;51.410;7.564;2023-02-19T09:20:59;100801.47;;;9.66;75.90
46223;BME280;31943;51.410;7.564;2023-02-19T09:23:25;100803.34;;;9.72;76.04
46223;BME280;31943;51.410;7.564;2023-02-19T09:25:55;100802.59;;;9.77;76.08
46223;BME280;31943;51.410;7.564;2023-02-19T09:28:21;100810.38;;;9.76;75.98
46223;BME280;31943;51.410;7.564;2023-02-19T09:30:47;100806.91;;;9.75;76.04
46223;BME280;31943;51.410;7.564;2023-02-19T09:33:12;100819.09;;;9.76;75.93
46223;BME280;31943;51.410;7.564;2023-02-19T09:35:39;100811.28;;;9.78;75.78
46223;BME280;31943;51.410;7.564;2023-02-19T09:38:05;100816.53;;;9.79;75.54
46223;BME280;31943;51.410;7.564;2023-02-19T09:40:31;100825.19;;;9.77;75.13
46223;BME280;31943;51.410;7.564;2023-02-19T09:42:56;100825.88;;;9.69;75.64
46223;BME280;31943;51.410;7.564;2023-02-19T09:45:24;100840.56;;;9.64;76.01
46223;BME280;31943;51.410;7.564;2023-02-19T09:47:53;100833.31;;;9.53;76.34
46223;BME280;31943;51.410;7.564;2023-02-19T09:50:22;100833.38;;;9.56;76.30
46223;BME280;31943;51.410;7.564;2023-02-19T09:52:53;100833.38;;;9.56;76.20
46223;BME280;31943;51.410;7.564;2023-02-19T09:55:28;100836.09;;;9.60;76.66
46223;BME280;31943;51.410;7.564;2023-02-19T09:57:55;100855.41;;;9.70;76.09
46223;BME280;31943;51.410;7.564;2023-02-19T10:00:23;100853.72;;;9.72;76.16
46223;BME280;31943;51.410;7.564;2023-02-19T10:02:51;100860.66;;;9.72;76.40
46223;BME280;31943;51.410;7.564;2023-02-19T10:05:18;100866.94;;;9.78;76.30
46223;BME280;31943;51.410;7.564;2023-02-19T10:07:47;100878.28;;;9.80;76.24
46223;BME280;31943;51.410;7.564;2023-02-19T10:10:28;100874.81;;;9.81;75.66
46223;BME280;31943;51.410;7.564;2023-02-19T10:13:08;100879.97;;;9.80;75.95
46223;BME280;31943;51.410;7.564;2023-02-19T10:15:37;100883.47;;;9.80;76.15
46223;BME280;31943;51.410;7.564;2023-02-19T10:18:04;100883.56;;;9.85;75.96
46223;BME280;31943;51.410;7.564;2023-02-19T10:20:31;100895.00;;;9.92;75.82
46223;BME280;31943;51.410;7.564;2023-02-19T10:23:01;100897.72;;;9.95;75.56
46223;BME280;31943;51.410;7.564;2023-02-19T10:25:32;100908.00;;;9.88;75.72
46223;BME280;31943;51.410;7.564;2023-02-19T10:27:59;100906.34;;;9.92;75.72
46223;BME280;31943;51.410;7.564;2023-02-19T10:30:29;100911.47;;;9.89;75.94
46223;BME280;31943;51.410;7.564;2023-02-19T10:33:01;100914.03;;;9.87;75.77
46223;BME280;31943;51.410;7.564;2023-02-19T10:35:26;100918.16;;;9.78;75.80
46223;BME280;31943;51.410;7.564;2023-02-19T10:37:55;100927.56;;;9.71;75.59
46223;BME280;31943;51.410;7.564;2023-02-19T10:40:24;100939.72;;;9.72;76.01
46223;BME280;31943;51.410;7.564;2023-02-19T10:42:55;100931.91;;;9.70;75.36
46223;BME280;31943;51.410;7.564;2023-02-19T10:45:23;100934.41;;;9.67;75.85
46223;BME280;31943;51.410;7.564;2023-02-19T10:47:50;100933.50;;;9.65;76.10
46223;BME280;31943;51.410;7.564;2023-02-19T10:50:24;100944.41;;;9.85;75.46
46223;BME280;31943;51.410;7.564;2023-02-19T10:52:52;100929.88;;;9.95;74.79
46223;BME280;31943;51.410;7.564;2023-02-19T10:55:25;100923.13;;;10.05;74.78
46223;BME280;31943;51.410;7.564;2023-02-19T10:57:52;100927.56;;;10.07;74.50
46223;BME280;31943;51.410;7.564;2023-02-19T11:00:22;100945.47;;;10.30;73.89
46223;BME280;31943;51.410;7.564;2023-02-19T11:03:17;100947.72;;;10.53;72.95
46223;BME280;31943;51.410;7.564;2023-02-19T11:05:53;100958.56;;;10.73;72.11
46223;BME280;31943;51.410;7.564;2023-02-19T11:08:22;100956.84;;;10.73;72.09
46223;BME280;31943;51.410;7.564;2023-02-19T11:10:54;100956.66;;;10.65;72.18
46223;BME280;31943;51.410;7.564;2023-02-19T11:13:47;100953.84;;;10.56;71.76
46223;BME280;31943;51.410;7.564;2023-02-19T11:16:14;100942.38;;;10.48;71.03
